sensor_id;sensor_type;location;lat;lon;timestamp;P1;durP1;ratioP1;P2;durP2;ratioP2
26953;SDS011;14508;50.924;11.600;2022-11-15T00:02:45;37.50;;;13.80;;
26953;SDS011;14508;50.924;11.600;2022-11-15T00:05:34;30.98;;;13.23;;
26953;SDS011;14508;50.924;11.600;2022-11-15T00:08:22;29.75;;;12.23;;
26953;SDS011;14508;50.924;11.600;2022-11-15T00:11:10;31.23;;;13.15;;
26953;SDS011;14508;50.924;11.600;2022-11-15T00:13:58;30.42;;;12.82;;
26953;SDS011;14508;50.924;11.600;2022-11-15T00:16:46;29.80;;;13.00;;
26953;SDS011;14508;50.924;11.600;2022-11-15T00:19:33;28.23;;;13.18;;
26953;SDS011;14508;50.924;11.600;2022-11-15T00:22:19;24.55;;;11.57;;
26953;SDS011;14508;50.924;11.600;2022-11-15T00:25:08;26.63;;;12.35;;
26953;SDS011;14508;50.924;11.600;2022-11-15T00:27:54;31.75;;;12.63;;
26953;SDS011;14508;50.924;11.600;2022-11-15T00:30:42;24.90;;;10.88;;
26953;SDS011;14508;50.924;11.600;2022-11-15T00:33:29;30.20;;;12.05;;
26953;SDS011;14508;50.924;11.600;2022-11-15T00:36:16;32.53;;;12.45;;
26953;SDS011;14508;50.924;11.600;2022-11-15T00:39:03;28.52;;;12.80;;
26953;SDS011;14508;50.924;11.600;2022-11-15T00:41:51;23.85;;;8.80;;
26953;SDS011;14508;50.924;11.600;2022-11-15T00:44:38;24.02;;;10.60;;
26953;SDS011;14508;50.924;11.600;2022-11-15T00:47:24;22.92;;;11.10;;
26953;SDS011;14508;50.924;11.600;2022-11-15T00:50:11;24.67;;;10.25;;
26953;SDS011;14508;50.924;11.600;2022-11-15T00:52:59;31.42;;;11.57;;
26953;SDS011;14508;50.924;11.600;2022-11-15T00:55:46;26.60;;;11.15;;
26953;SDS011;14508;50.924;11.600;2022-11-15T00:58:34;28.25;;;11.10;;
26953;SDS011;14508;50.924;11.600;2022-11-15T01:01:20;23.40;;;10.05;;
26953;SDS011;14508;50.924;11.600;2022-11-15T01:04:07;21.75;;;10.32;;
26953;SDS011;14508;50.924;11.600;2022-11-15T01:06:54;25.27;;;10.77;;
26953;SDS011;14508;50.924;11.600;2022-11-15T01:09:40;26.88;;;11.07;;
26953;SDS011;14508;50.924;11.600;2022-11-15T01:12:27;28.95;;;11.57;;
26953;SDS011;14508;50.924;11.600;2022-11-15T01:15:15;29.65;;;11.57;;
26953;SDS011;14508;50.924;11.600;2022-11-15T01:18:01;28.08;;;12.25;;
26953;SDS011;14508;50.924;11.600;2022-11-15T01:20:48;23.10;;;11.02;;
26953;SDS011;14508;50.924;11.600;2022-11-15T01:23:34;26.73;;;11.60;;
26953;SDS011;14508;50.924;11.600;2022-11-15T01:26:21;29.60;;;11.77;;
26953;SDS011;14508;50.924;11.600;2022-11-15T01:29:08;28.15;;;12.25;;
26953;SDS011;14508;50.924;11.600;2022-11-15T01:31:56;25.92;;;11.68;;
26953;SDS011;14508;50.924;11.600;2022-11-15T01:34:43;28.88;;;11.70;;
26953;SDS011;14508;50.924;11.600;2022-11-15T01:37:29;24.70;;;11.82;;
26953;SDS011;14508;50.924;11.600;2022-11-15T01:40:16;26.73;;;11.52;;
26953;SDS011;14508;50.924;11.600;2022-11-15T01:46:06;25.88;;;11.75;;
26953;SDS011;14508;50.924;11.600;2022-11-15T01:49:04;27.92;;;11.25;;
26953;SDS011;14508;50.924;11.600;2022-11-15T01:51:57;20.77;;;10.57;;
26953;SDS011;14508;50.924;11.600;2022-11-15T01:54:47;25.75;;;11.70;;
26953;SDS011;14508;50.924;11.600;2022-11-15T01:57:36;26.10;;;10.98;;
26953;SDS011;14508;50.924;11.600;2022-11-15T02:00:23;27.50;;;10.88;;
26953;SDS011;14508;50.924;11.600;2022-11-15T02:03:10;25.02;;;10.07;;
26953;SDS011;14508;50.924;11.600;2022-11-15T02:05:58;26.35;;;11.30;;
26953;SDS011;14508;50.924;11.600;2022-11-15T02:08:45;24.67;;;11.55;;
26953;SDS011;14508;50.924;11.600;2022-11-15T02:11:32;21.50;;;10.40;;
26953;SDS011;14508;50.924;11.600;2022-11-15T02:14:19;23.50;;;10.98;;
26953;SDS011;14508;50.924;11.600;2022-11-15T02:17:09;22.20;;;10.20;;
26953;SDS011;14508;50.924;11.600;2022-11-15T02:23:45;22.92;;;10.05;;
26953;SDS011;14508;50.924;11.600;2022-11-15T02:27:04;24.05;;;10.85;;
26953;SDS011;14508;50.924;11.600;2022-11-15T02:30:21;27.30;;;10.18;;
26953;SDS011;14508;50.924;11.600;2022-11-15T02:33:20;23.90;;;9.70;;
26953;SDS011;14508;50.924;11.600;2022-11-15T02:36:18;26.55;;;10.50;;
26953;SDS011;14508;50.924;11.600;2022-11-15T02:39:17;20.15;;;9.48;;
26953;SDS011;14508;50.924;11.600;2022-11-15T02:42:11;23.05;;;9.70;;
26953;SDS011;14508;50.924;11.600;2022-11-15T02:45:23;21.70;;;9.60;;
26953;SDS011;14508;50.924;11.600;2022-11-15T02:48:12;22.85;;;10.13;;
26953;SDS011;14508;50.924;11.600;2022-11-15T02:51:01;25.27;;;9.85;;
26953;SDS011;14508;50.924;11.600;2022-11-15T02:53:48;24.02;;;9.70;;
26953;SDS011;14508;50.924;11.600;2022-11-15T02:56:34;21.50;;;10.43;;
26953;SDS011;14508;50.924;11.600;2022-11-15T02:59:35;22.50;;;9.18;;
26953;SDS011;14508;50.924;11.600;2022-11-15T03:02:52;21.00;;;9.88;;
26953;SDS011;14508;50.924;11.600;2022-11-15T03:05:53;17.38;;;8.52;;
26953;SDS011;14508;50.924;11.600;2022-11-15T03:08:52;19.83;;;9.25;;
26953;SDS011;14508;50.924;11.600;2022-11-15T03:11:48;21.42;;;8.82;;
26953;SDS011;14508;50.924;11.600;2022-11-15T03:14:42;21.42;;;9.73;;
26953;SDS011;14508;50.924;11.600;2022-11-15T03:17:40;18.65;;;8.02;;
26953;SDS011;14508;50.924;11.600;2022-11-15T03:20:31;22.45;;;8.73;;
26953;SDS011;14508;50.924;11.600;2022-11-15T03:23:20;20.17;;;8.77;;
26953;SDS011;14508;50.924;11.600;2022-11-15T03:26:08;19.42;;;9.13;;
26953;SDS011;14508;50.924;11.600;2022-11-15T03:28:58;21.70;;;8.75;;
26953;SDS011;14508;50.924;11.600;2022-11-15T03:31:51;24.85;;;9.10;;
26953;SDS011;14508;50.924;11.600;2022-11-15T03:34:43;19.23;;;8.63;;
26953;SDS011;14508;50.924;11.600;2022-11-15T03:37:35;17.45;;;8.57;;
26953;SDS011;14508;50.924;11.600;2022-11-15T03:40:29;21.05;;;9.95;;
26953;SDS011;14508;50.924;11.600;2022-11-15T03:46:14;20.98;;;7.93;;
26953;SDS011;14508;50.924;11.600;2022-11-15T03:49:04;21.27;;;8.15;;
26953;SDS011;14508;50.924;11.600;2022-11-15T03:51:53;20.92;;;8.35;;
26953;SDS011;14508;50.924;11.600;2022-11-15T03:54:48;19.70;;;9.02;;
26953;SDS011;14508;50.924;11.600;2022-11-15T03:57:36;18.13;;;7.63;;
26953;SDS011;14508;50.924;11.600;2022-11-15T04:00:22;21.92;;;9.18;;
26953;SDS011;14508;50.924;11.600;2022-11-15T04:03:09;19.45;;;9.02;;
26953;SDS011;14508;50.924;11.600;2022-11-15T04:05:55;15.48;;;8.00;;
26953;SDS011;14508;50.924;11.600;2022-11-15T04:08:41;18.45;;;8.15;;
26953;SDS011;14508;50.924;11.600;2022-11-15T04:11:29;16.98;;;8.02;;
26953;SDS011;14508;50.924;11.600;2022-11-15T04:14:16;21.95;;;8.65;;
26953;SDS011;14508;50.924;11.600;2022-11-15T04:17:02;15.57;;;8.15;;
26953;SDS011;14508;50.924;11.600;2022-11-15T04:19:49;17.33;;;8.40;;
26953;SDS011;14508;50.924;11.600;2022-11-15T04:22:53;24.80;;;8.65;;
26953;SDS011;14508;50.924;11.600;2022-11-15T04:25:58;16.83;;;7.57;;
26953;SDS011;14508;50.924;11.600;2022-11-15T04:28:47;20.95;;;8.43;;
26953;SDS011;14508;50.924;11.600;2022-11-15T04:31:47;16.90;;;8.27;;
26953;SDS011;14508;50.924;11.600;2022-11-15T04:34:34;15.35;;;7.93;;
26953;SDS011;14508;50.924;11.600;2022-11-15T04:37:21;20.40;;;8.70;;
26953;SDS011;14508;50.924;11.600;2022-11-15T04:40:07;16.13;;;7.88;;
26953;SDS011;14508;50.924;11.600;2022-11-15T04:42:54;17.30;;;8.20;;
26953;SDS011;14508;50.924;11.600;2022-11-15T04:45:49;18.13;;;7.85;;
26953;SDS011;14508;50.924;11.600;2022-11-15T04:48:35;20.52;;;7.97;;
26953;SDS011;14508;50.924;11.600;2022-11-15T04:51:22;16.02;;;7.90;;
26953;SDS011;14508;50.924;11.600;2022-11-15T04:54:08;17.00;;;7.40;;
26953;SDS011;14508;50.924;11.600;2022-11-15T04:56:54;17.83;;;7.38;;
26953;SDS011;14508;50.924;11.600;2022-11-15T04:59:41;18.08;;;8.25;;
26953;SDS011;14508;50.924;11.600;2022-11-15T05:02:28;18.02;;;8.10;;
26953;SDS011;14508;50.924;11.600;2022-11-15T05:05:35;18.63;;;7.75;;
26953;SDS011;14508;50.924;11.600;2022-11-15T05:08:21;16.48;;;8.88;;
26953;SDS011;14508;50.924;11.600;2022-11-15T05:11:08;18.10;;;8.40;;
26953;SDS011;14508;50.924;11.600;2022-11-15T05:13:54;17.98;;;8.88;;
26953;SDS011;14508;50.924;11.600;2022-11-15T05:16:41;15.80;;;8.13;;
26953;SDS011;14508;50.924;11.600;2022-11-15T05:19:29;17.25;;;8.65;;
26953;SDS011;14508;50.924;11.600;2022-11-15T05:22:15;17.38;;;8.15;;
26953;SDS011;14508;50.924;11.600;2022-11-15T05:25:01;25.30;;;10.20;;
26953;SDS011;14508;50.924;11.600;2022-11-15T05:27:48;16.00;;;8.18;;
26953;SDS011;14508;50.924;11.600;2022-11-15T05:30:34;19.27;;;8.60;;
26953;SDS011;14508;50.924;11.600;2022-11-15T05:33:21;18.33;;;9.40;;
26953;SDS011;14508;50.924;11.600;2022-11-15T05:36:12;21.13;;;8.32;;
26953;SDS011;14508;50.924;11.600;2022-11-15T05:39:03;22.30;;;9.25;;
26953;SDS011;14508;50.924;11.600;2022-11-15T05:41:54;24.38;;;9.07;;
26953;SDS011;14508;50.924;11.600;2022-11-15T05:44:43;17.33;;;8.73;;
26953;SDS011;14508;50.924;11.600;2022-11-15T05:47:33;20.48;;;8.65;;
26953;SDS011;14508;50.924;11.600;2022-11-15T05:50:21;21.80;;;8.70;;
26953;SDS011;14508;50.924;11.600;2022-11-15T05:53:09;21.83;;;7.70;;
26953;SDS011;14508;50.924;11.600;2022-11-15T05:55:59;19.10;;;8.13;;
26953;SDS011;14508;50.924;11.600;2022-11-15T05:58:45;18.83;;;7.85;;
26953;SDS011;14508;50.924;11.600;2022-11-15T06:01:32;17.02;;;7.95;;
26953;SDS011;14508;50.924;11.600;2022-11-15T06:04:22;22.35;;;7.93;;
26953;SDS011;14508;50.924;11.600;2022-11-15T06:07:08;21.10;;;9.05;;
26953;SDS011;14508;50.924;11.600;2022-11-15T06:09:56;23.77;;;9.25;;
26953;SDS011;14508;50.924;11.600;2022-11-15T06:12:43;18.63;;;7.53;;
26953;SDS011;14508;50.924;11.600;2022-11-15T06:15:29;22.63;;;9.25;;
26953;SDS011;14508;50.924;11.600;2022-11-15T06:18:17;19.27;;;8.25;;
26953;SDS011;14508;50.924;11.600;2022-11-15T06:21:04;17.02;;;7.82;;
26953;SDS011;14508;50.924;11.600;2022-11-15T06:23:51;25.25;;;11.73;;
26953;SDS011;14508;50.924;11.600;2022-11-15T06:26:39;20.77;;;8.63;;
26953;SDS011;14508;50.924;11.600;2022-11-15T06:29:25;23.77;;;9.30;;
26953;SDS011;14508;50.924;11.600;2022-11-15T06:32:12;18.23;;;7.35;;
26953;SDS011;14508;50.924;11.600;2022-11-15T06:34:58;15.98;;;7.60;;
26953;SDS011;14508;50.924;11.600;2022-11-15T06:37:45;28.17;;;9.27;;
26953;SDS011;14508;50.924;11.600;2022-11-15T06:40:32;18.80;;;8.15;;
26953;SDS011;14508;50.924;11.600;2022-11-15T06:43:21;22.30;;;8.32;;
26953;SDS011;14508;50.924;11.600;2022-11-15T06:46:08;19.73;;;9.38;;
26953;SDS011;14508;50.924;11.600;2022-11-15T06:48:55;17.35;;;7.47;;
26953;SDS011;14508;50.924;11.600;2022-11-15T06:51:41;22.45;;;7.70;;
26953;SDS011;14508;50.924;11.600;2022-11-15T06:54:28;24.42;;;8.50;;
26953;SDS011;14508;50.924;11.600;2022-11-15T06:57:14;27.88;;;9.48;;
26953;SDS011;14508;50.924;11.600;2022-11-15T07:00:02;23.60;;;9.27;;
26953;SDS011;14508;50.924;11.600;2022-11-15T07:02:50;18.77;;;8.07;;
26953;SDS011;14508;50.924;11.600;2022-11-15T07:05:36;21.05;;;8.50;;
26953;SDS011;14508;50.924;11.600;2022-11-15T07:08:23;20.52;;;8.60;;
26953;SDS011;14508;50.924;11.600;2022-11-15T07:11:12;21.35;;;8.70;;
26953;SDS011;14508;50.924;11.600;2022-11-15T07:13:59;24.77;;;7.93;;
26953;SDS011;14508;50.924;11.600;2022-11-15T07:16:47;29.85;;;11.77;;
26953;SDS011;14508;50.924;11.600;2022-11-15T07:19:34;30.67;;;12.50;;
26953;SDS011;14508;50.924;11.600;2022-11-15T07:22:20;31.17;;;10.77;;
26953;SDS011;14508;50.924;11.600;2022-11-15T07:25:07;21.98;;;10.98;;
26953;SDS011;14508;50.924;11.600;2022-11-15T07:27:54;32.22;;;11.88;;
26953;SDS011;14508;50.924;11.600;2022-11-15T07:30:41;28.50;;;10.85;;
26953;SDS011;14508;50.924;11.600;2022-11-15T07:33:30;21.80;;;10.40;;
26953;SDS011;14508;50.924;11.600;2022-11-15T07:36:17;40.72;;;17.23;;
26953;SDS011;14508;50.924;11.600;2022-11-15T07:39:04;41.72;;;16.02;;
26953;SDS011;14508;50.924;11.600;2022-11-15T07:41:50;32.38;;;12.48;;
26953;SDS011;14508;50.924;11.600;2022-11-15T07:44:57;30.02;;;10.85;;
26953;SDS011;14508;50.924;11.600;2022-11-15T07:47:44;30.15;;;12.68;;
26953;SDS011;14508;50.924;11.600;2022-11-15T07:50:33;25.85;;;12.20;;
26953;SDS011;14508;50.924;11.600;2022-11-15T07:53:19;30.05;;;12.18;;
26953;SDS011;14508;50.924;11.600;2022-11-15T07:56:06;28.80;;;14.02;;
26953;SDS011;14508;50.924;11.600;2022-11-15T07:58:53;51.60;;;21.27;;
26953;SDS011;14508;50.924;11.600;2022-11-15T08:01:39;27.73;;;11.40;;
26953;SDS011;14508;50.924;11.600;2022-11-15T08:04:26;33.75;;;14.05;;
26953;SDS011;14508;50.924;11.600;2022-11-15T08:07:14;26.80;;;10.05;;
26953;SDS011;14508;50.924;11.600;2022-11-15T08:10:01;23.77;;;8.60;;
26953;SDS011;14508;50.924;11.600;2022-11-15T08:12:54;24.00;;;8.90;;
26953;SDS011;14508;50.924;11.600;2022-11-15T08:15:43;20.92;;;8.77;;
26953;SDS011;14508;50.924;11.600;2022-11-15T08:18:29;14.75;;;7.60;;
26953;SDS011;14508;50.924;11.600;2022-11-15T08:21:17;16.60;;;7.15;;
26953;SDS011;14508;50.924;11.600;2022-11-15T08:24:08;16.95;;;7.68;;
26953;SDS011;14508;50.924;11.600;2022-11-15T08:26:55;16.75;;;7.22;;
26953;SDS011;14508;50.924;11.600;2022-11-15T08:29:42;17.48;;;7.38;;
26953;SDS011;14508;50.924;11.600;2022-11-15T08:32:29;22.15;;;7.97;;
26953;SDS011;14508;50.924;11.600;2022-11-15T08:35:17;15.00;;;7.43;;
26953;SDS011;14508;50.924;11.600;2022-11-15T08:38:10;21.00;;;8.23;;
26953;SDS011;14508;50.924;11.600;2022-11-15T08:41:01;16.55;;;7.45;;
26953;SDS011;14508;50.924;11.600;2022-11-15T08:43:50;18.85;;;8.35;;
26953;SDS011;14508;50.924;11.600;2022-11-15T08:46:37;22.90;;;8.57;;
26953;SDS011;14508;50.924;11.600;2022-11-15T08:49:23;18.85;;;7.47;;
26953;SDS011;14508;50.924;11.600;2022-11-15T08:52:10;16.45;;;6.90;;
26953;SDS011;14508;50.924;11.600;2022-11-15T08:54:56;22.27;;;7.53;;
26953;SDS011;14508;50.924;11.600;2022-11-15T08:57:44;18.40;;;7.45;;
26953;SDS011;14508;50.924;11.600;2022-11-15T09:00:31;17.00;;;7.28;;
26953;SDS011;14508;50.924;11.600;2022-11-15T09:03:18;14.38;;;6.65;;
26953;SDS011;14508;50.924;11.600;2022-11-15T09:06:05;18.05;;;6.95;;
26953;SDS011;14508;50.924;11.600;2022-11-15T09:08:51;16.65;;;6.03;;
26953;SDS011;14508;50.924;11.600;2022-11-15T09:11:38;18.65;;;7.22;;
26953;SDS011;14508;50.924;11.600;2022-11-15T09:14:26;24.70;;;7.22;;
26953;SDS011;14508;50.924;11.600;2022-11-15T09:17:13;15.13;;;6.47;;
26953;SDS011;14508;50.924;11.600;2022-11-15T09:20:07;16.30;;;7.25;;
26953;SDS011;14508;50.924;11.600;2022-11-15T09:22:58;12.80;;;6.40;;
26953;SDS011;14508;50.924;11.600;2022-11-15T09:25:45;19.80;;;6.55;;
26953;SDS011;14508;50.924;11.600;2022-11-15T09:28:32;22.92;;;7.18;;
26953;SDS011;14508;50.924;11.600;2022-11-15T09:31:22;18.85;;;7.22;;
26953;SDS011;14508;50.924;11.600;2022-11-15T09:34:09;15.70;;;7.45;;
26953;SDS011;14508;50.924;11.600;2022-11-15T09:36:57;12.90;;;6.57;;
26953;SDS011;14508;50.924;11.600;2022-11-15T09:39:43;19.77;;;8.07;;
26953;SDS011;14508;50.924;11.600;2022-11-15T09:42:41;13.57;;;7.53;;
26953;SDS011;14508;50.924;11.600;2022-11-15T09:45:37;19.92;;;7.20;;
26953;SDS011;14508;50.924;11.600;2022-11-15T09:48:45;21.55;;;6.75;;
26953;SDS011;14508;50.924;11.600;2022-11-15T09:51:38;24.08;;;7.45;;
26953;SDS011;14508;50.924;11.600;2022-11-15T09:57:09;26.98;;;7.03;;
26953;SDS011;14508;50.924;11.600;2022-11-15T09:59:45;16.60;;;6.50;;
26953;SDS011;14508;50.924;11.600;2022-11-15T10:02:32;23.85;;;6.72;;
26953;SDS011;14508;50.924;11.600;2022-11-15T10:05:10;17.60;;;7.30;;
26953;SDS011;14508;50.924;11.600;2022-11-15T10:07:44;17.15;;;8.05;;
26953;SDS011;14508;50.924;11.600;2022-11-15T10:10:20;18.00;;;8.25;;
26953;SDS011;14508;50.924;11.600;2022-11-15T10:12:53;20.50;;;7.15;;
26953;SDS011;14508;50.924;11.600;2022-11-15T10:15:21;18.23;;;5.95;;
26953;SDS011;14508;50.924;11.600;2022-11-15T10:17:55;14.23;;;6.85;;
26953;SDS011;14508;50.924;11.600;2022-11-15T10:20:40;15.73;;;5.65;;
26953;SDS011;14508;50.924;11.600;2022-11-15T10:23:19;14.27;;;6.50;;
26953;SDS011;14508;50.924;11.600;2022-11-15T10:25:50;13.80;;;6.50;;
26953;SDS011;14508;50.924;11.600;2022-11-15T10:28:21;9.88;;;5.50;;
26953;SDS011;14508;50.924;11.600;2022-11-15T10:30:53;13.95;;;5.38;;
26953;SDS011;14508;50.924;11.600;2022-11-15T10:33:33;9.50;;;5.18;;
26953;SDS011;14508;50.924;11.600;2022-11-15T10:36:18;10.05;;;5.95;;
26953;SDS011;14508;50.924;11.600;2022-11-15T10:38:51;21.08;;;5.75;;
26953;SDS011;14508;50.924;11.600;2022-11-15T10:41:31;12.77;;;5.18;;
26953;SDS011;14508;50.924;11.600;2022-11-15T10:49:53;10.70;;;5.35;;
26953;SDS011;14508;50.924;11.600;2022-11-15T10:52:25;12.75;;;5.88;;
26953;SDS011;14508;50.924;11.600;2022-11-15T10:54:55;13.05;;;5.95;;
26953;SDS011;14508;50.924;11.600;2022-11-15T10:57:27;13.90;;;5.25;;
26953;SDS011;14508;50.924;11.600;2022-11-15T10:59:59;10.57;;;5.65;;
26953;SDS011;14508;50.924;11.600;2022-11-15T11:02:31;14.02;;;5.00;;
26953;SDS011;14508;50.924;11.600;2022-11-15T11:05:03;13.13;;;5.40;;
26953;SDS011;14508;50.924;11.600;2022-11-15T11:07:34;9.43;;;4.28;;
26953;SDS011;14508;50.924;11.600;2022-11-15T11:10:04;12.10;;;5.35;;
26953;SDS011;14508;50.924;11.600;2022-11-15T11:13:12;9.18;;;4.85;;
26953;SDS011;14508;50.924;11.600;2022-11-15T11:15:42;12.02;;;5.55;;
26953;SDS011;14508;50.924;11.600;2022-11-15T11:18:17;11.65;;;5.47;;
26953;SDS011;14508;50.924;11.600;2022-11-15T11:20:54;15.20;;;5.40;;
26953;SDS011;14508;50.924;11.600;2022-11-15T11:23:44;16.77;;;5.78;;
26953;SDS011;14508;50.924;11.600;2022-11-15T11:26:27;10.80;;;4.82;;
26953;SDS011;14508;50.924;11.600;2022-11-15T11:29:03;10.57;;;4.97;;
26953;SDS011;14508;50.924;11.600;2022-11-15T11:31:43;7.90;;;4.13;;
26953;SDS011;14508;50.924;11.600;2022-11-15T11:34:20;10.77;;;4.32;;
26953;SDS011;14508;50.924;11.600;2022-11-15T11:37:05;14.70;;;4.35;;
26953;SDS011;14508;50.924;11.600;2022-11-15T11:39:45;12.07;;;4.72;;
26953;SDS011;14508;50.924;11.600;2022-11-15T11:42:24;11.32;;;3.92;;
26953;SDS011;14508;50.924;11.600;2022-11-15T11:45:00;9.27;;;3.95;;
26953;SDS011;14508;50.924;11.600;2022-11-15T11:47:44;8.20;;;3.83;;
26953;SDS011;14508;50.924;11.600;2022-11-15T11:50:17;9.05;;;3.78;;
26953;SDS011;14508;50.924;11.600;2022-11-15T11:52:52;6.95;;;3.05;;
26953;SDS011;14508;50.924;11.600;2022-11-15T11:55:31;8.35;;;3.80;;
26953;SDS011;14508;50.924;11.600;2022-11-15T11:58:06;9.38;;;3.53;;
26953;SDS011;14508;50.924;11.600;2022-11-15T12:00:40;11.20;;;3.80;;
26953;SDS011;14508;50.924;11.600;2022-11-15T12:03:12;5.80;;;2.97;;
26953;SDS011;14508;50.924;11.600;2022-11-15T12:05:56;6.78;;;3.15;;
26953;SDS011;14508;50.924;11.600;2022-11-15T12:08:29;4.32;;;2.65;;
26953;SDS011;14508;50.924;11.600;2022-11-15T12:11:07;9.23;;;2.72;;
26953;SDS011;14508;50.924;11.600;2022-11-15T12:13:39;5.95;;;2.70;;
26953;SDS011;14508;50.924;11.600;2022-11-15T12:16:11;4.88;;;2.45;;
26953;SDS011;14508;50.924;11.600;2022-11-15T12:18:44;6.40;;;2.33;;
26953;SDS011;14508;50.924;11.600;2022-11-15T12:21:17;4.85;;;2.50;;
26953;SDS011;14508;50.924;11.600;2022-11-15T12:23:55;5.18;;;2.38;;
26953;SDS011;14508;50.924;11.600;2022-11-15T12:26:32;4.18;;;2.30;;
26953;SDS011;14508;50.924;11.600;2022-11-15T12:29:05;6.82;;;2.42;;
26953;SDS011;14508;50.924;11.600;2022-11-15T12:31:39;5.93;;;1.98;;
26953;SDS011;14508;50.924;11.600;2022-11-15T12:34:16;7.65;;;2.63;;
26953;SDS011;14508;50.924;11.600;2022-11-15T12:37:01;13.88;;;3.08;;
26953;SDS011;14508;50.924;11.600;2022-11-15T12:40:28;5.05;;;2.35;;
26953;SDS011;14508;50.924;11.600;2022-11-15T12:46:13;8.77;;;2.05;;
26953;SDS011;14508;50.924;11.600;2022-11-15T12:48:49;8.40;;;2.08;;
26953;SDS011;14508;50.924;11.600;2022-11-15T12:57:37;5.43;;;2.05;;
26953;SDS011;14508;50.924;11.600;2022-11-15T13:03:18;3.53;;;1.73;;
26953;SDS011;14508;50.924;11.600;2022-11-15T13:06:00;4.18;;;2.22;;
26953;SDS011;14508;50.924;11.600;2022-11-15T13:08:46;11.63;;;3.17;;
26953;SDS011;14508;50.924;11.600;2022-11-15T13:11:41;3.70;;;1.83;;
26953;SDS011;14508;50.924;11.600;2022-11-15T13:17:15;5.05;;;2.80;;
26953;SDS011;14508;50.924;11.600;2022-11-15T13:19:53;6.65;;;2.83;;
26953;SDS011;14508;50.924;11.600;2022-11-15T13:22:25;3.65;;;2.10;;
26953;SDS011;14508;50.924;11.600;2022-11-15T13:27:47;5.80;;;3.10;;
26953;SDS011;14508;50.924;11.600;2022-11-15T13:30:19;6.38;;;3.53;;
26953;SDS011;14508;50.924;11.600;2022-11-15T13:32:48;5.32;;;2.60;;
26953;SDS011;14508;50.924;11.600;2022-11-15T13:35:19;5.03;;;2.00;;
26953;SDS011;14508;50.924;11.600;2022-11-15T13:37:49;6.40;;;1.80;;
26953;SDS011;14508;50.924;11.600;2022-11-15T13:40:20;8.90;;;2.17;;
26953;SDS011;14508;50.924;11.600;2022-11-15T13:42:50;3.35;;;1.92;;
26953;SDS011;14508;50.924;11.600;2022-11-15T13:45:19;3.53;;;1.75;;
26953;SDS011;14508;50.924;11.600;2022-11-15T13:47:51;5.53;;;1.50;;
26953;SDS011;14508;50.924;11.600;2022-11-15T13:50:21;3.88;;;1.70;;
26953;SDS011;14508;50.924;11.600;2022-11-15T13:52:52;8.18;;;2.30;;
26953;SDS011;14508;50.924;11.600;2022-11-15T13:55:23;5.65;;;2.53;;
26953;SDS011;14508;50.924;11.600;2022-11-15T13:57:53;3.92;;;2.22;;
26953;SDS011;14508;50.924;11.600;2022-11-15T14:00:27;7.95;;;2.17;;
26953;SDS011;14508;50.924;11.600;2022-11-15T14:03:07;10.73;;;1.92;;
26953;SDS011;14508;50.924;11.600;2022-11-15T14:05:42;3.58;;;1.90;;
26953;SDS011;14508;50.924;11.600;2022-11-15T14:08:21;3.53;;;1.55;;
26953;SDS011;14508;50.924;11.600;2022-11-15T14:11:05;8.68;;;2.70;;
26953;SDS011;14508;50.924;11.600;2022-11-15T14:13:39;4.53;;;2.17;;
26953;SDS011;14508;50.924;11.600;2022-11-15T14:16:19;8.45;;;2.15;;
26953;SDS011;14508;50.924;11.600;2022-11-15T14:18:49;7.63;;;2.92;;
26953;SDS011;14508;50.924;11.600;2022-11-15T14:21:18;8.07;;;2.30;;
26953;SDS011;14508;50.924;11.600;2022-11-15T14:23:47;7.60;;;1.98;;
26953;SDS011;14508;50.924;11.600;2022-11-15T14:26:27;6.43;;;1.90;;
26953;SDS011;14508;50.924;11.600;2022-11-15T14:28:56;2.63;;;1.70;;
26953;SDS011;14508;50.924;11.600;2022-11-15T14:31:25;4.32;;;2.80;;
26953;SDS011;14508;50.924;11.600;2022-11-15T14:33:53;5.97;;;2.35;;
26953;SDS011;14508;50.924;11.600;2022-11-15T14:36:21;5.45;;;1.67;;
26953;SDS011;14508;50.924;11.600;2022-11-15T14:38:49;6.00;;;2.55;;
26953;SDS011;14508;50.924;11.600;2022-11-15T14:41:19;7.32;;;2.00;;
26953;SDS011;14508;50.924;11.600;2022-11-15T14:43:49;11.27;;;2.20;;
26953;SDS011;14508;50.924;11.600;2022-11-15T14:46:17;3.90;;;2.10;;
26953;SDS011;14508;50.924;11.600;2022-11-15T14:48:46;5.00;;;1.90;;
26953;SDS011;14508;50.924;11.600;2022-11-15T14:51:16;4.65;;;2.00;;
26953;SDS011;14508;50.924;11.600;2022-11-15T14:53:45;6.50;;;2.08;;
26953;SDS011;14508;50.924;11.600;2022-11-15T14:56:14;8.60;;;2.83;;
26953;SDS011;14508;50.924;11.600;2022-11-15T14:58:42;15.45;;;3.15;;
26953;SDS011;14508;50.924;11.600;2022-11-15T15:01:12;14.93;;;2.55;;
26953;SDS011;14508;50.924;11.600;2022-11-15T15:03:41;12.07;;;2.65;;
26953;SDS011;14508;50.924;11.600;2022-11-15T15:06:11;9.45;;;3.25;;
26953;SDS011;14508;50.924;11.600;2022-11-15T15:08:43;11.98;;;4.45;;
26953;SDS011;14508;50.924;11.600;2022-11-15T15:11:13;26.52;;;12.48;;
26953;SDS011;14508;50.924;11.600;2022-11-15T15:13:49;19.13;;;9.35;;
26953;SDS011;14508;50.924;11.600;2022-11-15T15:16:18;9.18;;;5.43;;
26953;SDS011;14508;50.924;11.600;2022-11-15T15:18:47;8.93;;;5.03;;
26953;SDS011;14508;50.924;11.600;2022-11-15T15:21:18;6.78;;;3.42;;
26953;SDS011;14508;50.924;11.600;2022-11-15T15:23:51;7.07;;;3.00;;
26953;SDS011;14508;50.924;11.600;2022-11-15T15:26:21;5.30;;;3.05;;
26953;SDS011;14508;50.924;11.600;2022-11-15T15:28:50;6.05;;;3.20;;
26953;SDS011;14508;50.924;11.600;2022-11-15T15:31:18;7.07;;;3.20;;
26953;SDS011;14508;50.924;11.600;2022-11-15T15:33:46;8.73;;;2.95;;
26953;SDS011;14508;50.924;11.600;2022-11-15T15:36:17;7.55;;;2.65;;
26953;SDS011;14508;50.924;11.600;2022-11-15T15:38:46;9.30;;;2.67;;
26953;SDS011;14508;50.924;11.600;2022-11-15T15:41:15;5.68;;;3.17;;
26953;SDS011;14508;50.924;11.600;2022-11-15T15:43:44;6.78;;;3.35;;
26953;SDS011;14508;50.924;11.600;2022-11-15T15:46:13;7.65;;;2.65;;
26953;SDS011;14508;50.924;11.600;2022-11-15T15:48:43;10.77;;;3.65;;
26953;SDS011;14508;50.924;11.600;2022-11-15T15:51:11;7.53;;;3.83;;
26953;SDS011;14508;50.924;11.600;2022-11-15T15:53:47;7.32;;;3.97;;
26953;SDS011;14508;50.924;11.600;2022-11-15T15:56:16;7.53;;;3.75;;
26953;SDS011;14508;50.924;11.600;2022-11-15T15:58:44;7.78;;;3.35;;
26953;SDS011;14508;50.924;11.600;2022-11-15T16:01:12;9.95;;;4.35;;
26953;SDS011;14508;50.924;11.600;2022-11-15T16:03:40;9.20;;;3.83;;
26953;SDS011;14508;50.924;11.600;2022-11-15T16:09:05;12.47;;;5.40;;
26953;SDS011;14508;50.924;11.600;2022-11-15T16:11:40;15.02;;;5.18;;
26953;SDS011;14508;50.924;11.600;2022-11-15T16:14:08;16.55;;;7.05;;
26953;SDS011;14508;50.924;11.600;2022-11-15T16:16:37;19.73;;;7.38;;
26953;SDS011;14508;50.924;11.600;2022-11-15T16:19:08;18.05;;;6.38;;
26953;SDS011;14508;50.924;11.600;2022-11-15T16:21:38;15.48;;;6.50;;
26953;SDS011;14508;50.924;11.600;2022-11-15T16:24:07;13.63;;;5.55;;
26953;SDS011;14508;50.924;11.600;2022-11-15T16:26:35;11.25;;;5.97;;
26953;SDS011;14508;50.924;11.600;2022-11-15T16:29:04;15.40;;;5.97;;
26953;SDS011;14508;50.924;11.600;2022-11-15T16:31:35;10.13;;;5.70;;
26953;SDS011;14508;50.924;11.600;2022-11-15T16:34:03;14.70;;;6.72;;